METAR Data
IDs: Format: Raw Decoded Include TAF

Data at: 0239 UTC 26 Apr 2019

PAWS 260156Z AUTO 05007KT 10SM CLR 11/M12 A3007 RMK AO2 SLP198 T01061117
PAWS 260056Z AUTO VRB05G14KT 10SM FEW090 10/M11 A3006 RMK AO2 SLP196 T01001111
PAWS 252356Z AUTO 09009G16KT 10SM CLR 11/M11 A3007 RMK AO2 SLP198 T01061111 10106 20056 56004
PAWS 252256Z AUTO 07008G19KT 10SM CLR 09/M11 A3007 RMK AO2 SLP199 T00941111
PAWS 252156Z AUTO 07009G14KT 10SM CLR 09/M11 A3007 RMK AO2 SLP198 T00941106
PAWS 252056Z AUTO 07011G17KT 10SM CLR 09/M11 A3008 RMK AO2 SLP201 T00891111 58003
PAWS 251956Z AUTO 05013G16KT 10SM CLR 08/M10 A3008 RMK AO2 SLP203 T00781100
PAWS 251856Z AUTO 07009KT 10SM CLR 07/M10 A3009 RMK AO2 SLP204 T00671100
PAWS 251756Z AUTO 05012G17KT 10SM CLR 06/M11 A3009 RMK AO2 SLP205 T00561106 10056 20022 51003
PAWS 251656Z AUTO 07011G19KT 10SM CLR 04/M11 A3009 RMK AO2 SLP205 T00441111
PAWS 251556Z AUTO 06013G19KT 10SM CLR 04/M11 A3008 RMK AO2 SLP203 T00391111
PAWS 251456Z AUTO 06011G19KT 10SM CLR 03/M11 A3008 RMK AO2 SLP202 T00281111 56003
PAWS 251356Z AUTO 06013G18KT 10SM FEW110 02/M12 A3008 RMK AO2 SLP203 T00221122 FZRANO
PAWS 251256Z AUTO 06012KT 10SM CLR 03/M12 A3009 RMK AO2 SLP203 T00281122
PAWS 251156Z AUTO 07010G18KT 10SM CLR 03/M12 A3009 RMK AO2 SLP205 T00281122 10039 20017 50003
PAWS 251056Z AUTO 05011G20KT 10SM CLR 03/M11 A3009 RMK AO2 SLP206 T00331111
PAWS 250956Z AUTO 06011KT 10SM CLR 03/M10 A3009 RMK AO2 SLP204 T00281100
PAWS 250856Z AUTO 05008KT 10SM CLR 02/M08 A3008 RMK AO2 SLP203 T00171083 400781039 58001 FZRANO
PAWS 250756Z AUTO 07006KT 10SM CLR 02/M08 A3009 RMK AO2 SLP205 T00221083 FZRANO
PAWS 250656Z AUTO 05008KT 10SM CLR 02/M08 A3008 RMK AO2 SLP203 T00221083 FZRANO
PAWS 250556Z AUTO 07006KT 10SM CLR 04/M09 A3009 RMK AO2 SLP204 T00391089 10078 20039 53001
PAWS 250456Z AUTO 05005KT 10SM CLR 04/M09 A3008 RMK AO2 SLP200 T00441094
PAWS 250356Z AUTO 10007KT 080V140 10SM CLR 05/M10 A3008 RMK AO2 SLP201 T00501100
PAWS 250256Z AUTO VRB04KT 10SM CLR 06/M10 A3008 RMK AO2 SLP203 T00611100 53003
PAWS 250156Z AUTO 11009G17KT 10SM CLR 07/M11 A3008 RMK AO2 SLP201 T00671111
PAWS 250056Z AUTO 12007KT 100V160 10SM SCT080 07/M11 A3008 RMK AO2 SLP200 T00671111
PAWS 242356Z AUTO 10011G14KT 070V130 10SM FEW090 07/M11 A3008 RMK AO2 SLP199 T00721106 10078 20017 55003
PAWS 242256Z AUTO 11009KT 10SM SCT060 07/M09 A3007 RMK AO2 SLP199 T00671089
PAWS 242156Z AUTO 14007KT 10SM FEW055 07/M08 A3008 RMK AO2 SLP200 T00671078
PAWS 242056Z AUTO 00000KT 10SM CLR 06/M06 A3009 RMK AO2 SLP203 T00561056 51006
PAWS 241956Z AUTO VRB06KT 10SM CLR 04/M06 A3008 RMK AO2 SLP203 T00441061
PAWS 241856Z AUTO 13005KT 10SM CLR 03/M05 A3008 RMK AO2 SLP202 T00281050
PAWS 241756Z AUTO 12004KT 10SM CLR 02/M05 A3007 RMK AO2 SLP197 T00221050 10022 21039 51005 FZRANO
PAWS 241656Z AUTO 07004KT 10SM CLR 00/M04 A3006 RMK AO2 SLP196 T00001039 FZRANO
PAWS 241556Z AUTO 00000KT 10SM CLR M01/M02 A3006 RMK AO2 SLP194 T10111022 FZRANO
PAWS 241456Z AUTO 00000KT 10SM FEW019 M04/M04 A3005 RMK AO2 SLP191 T10391044 51008 FZRANO